sensor_id;sensor_type;location;lat;lon;timestamp;temperature;humidity
50955;DHT22;36966;48.064;-0.792;2023-07-13T00:00:52;25.20;46.00
50955;DHT22;36966;48.064;-0.792;2023-07-13T00:03:11;25.20;46.00
50955;DHT22;36966;48.064;-0.792;2023-07-13T00:05:32;25.20;46.00
50955;DHT22;36966;48.064;-0.792;2023-07-13T00:07:51;25.20;46.00
50955;DHT22;36966;48.064;-0.792;2023-07-13T00:10:11;25.20;46.00
50955;DHT22;36966;48.064;-0.792;2023-07-13T00:12:34;25.20;46.00
50955;DHT22;36966;48.064;-0.792;2023-07-13T00:14:53;25.20;46.00
50955;DHT22;36966;48.064;-0.792;2023-07-13T00:17:12;25.20;46.00
50955;DHT22;36966;48.064;-0.792;2023-07-13T00:19:32;25.10;46.10
50955;DHT22;36966;48.064;-0.792;2023-07-13T00:21:51;25.20;46.10
50955;DHT22;36966;48.064;-0.792;2023-07-13T00:24:16;25.10;46.00
50955;DHT22;36966;48.064;-0.792;2023-07-13T00:26:41;25.10;46.10
50955;DHT22;36966;48.064;-0.792;2023-07-13T00:29:03;25.10;46.10
50955;DHT22;36966;48.064;-0.792;2023-07-13T00:31:27;25.10;46.10
50955;DHT22;36966;48.064;-0.792;2023-07-13T00:33:46;25.10;46.00
50955;DHT22;36966;48.064;-0.792;2023-07-13T00:36:06;25.10;46.10
50955;DHT22;36966;48.064;-0.792;2023-07-13T00:38:25;25.10;46.10
50955;DHT22;36966;48.064;-0.792;2023-07-13T00:40:44;25.10;46.10
50955;DHT22;36966;48.064;-0.792;2023-07-13T00:43:04;25.10;46.10
50955;DHT22;36966;48.064;-0.792;2023-07-13T00:47:48;25.00;46.10
50955;DHT22;36966;48.064;-0.792;2023-07-13T00:50:09;25.00;46.20
50955;DHT22;36966;48.064;-0.792;2023-07-13T00:52:29;25.00;46.20
50955;DHT22;36966;48.064;-0.792;2023-07-13T00:54:49;25.00;46.20
50955;DHT22;36966;48.064;-0.792;2023-07-13T00:57:11;25.00;46.20
50955;DHT22;36966;48.064;-0.792;2023-07-13T00:59:31;25.00;46.30
50955;DHT22;36966;48.064;-0.792;2023-07-13T01:01:53;24.90;46.30
50955;DHT22;36966;48.064;-0.792;2023-07-13T01:04:13;25.00;46.40
50955;DHT22;36966;48.064;-0.792;2023-07-13T01:06:33;25.00;46.40
50955;DHT22;36966;48.064;-0.792;2023-07-13T01:08:52;25.00;46.40
50955;DHT22;36966;48.064;-0.792;2023-07-13T01:11:12;25.00;46.40
50955;DHT22;36966;48.064;-0.792;2023-07-13T01:13:36;25.00;46.40
50955;DHT22;36966;48.064;-0.792;2023-07-13T01:15:56;25.00;46.50
50955;DHT22;36966;48.064;-0.792;2023-07-13T01:20:37;24.90;46.50
50955;DHT22;36966;48.064;-0.792;2023-07-13T01:22:57;24.90;46.50
50955;DHT22;36966;48.064;-0.792;2023-07-13T01:25:18;24.90;46.50
50955;DHT22;36966;48.064;-0.792;2023-07-13T01:27:38;24.90;46.50
50955;DHT22;36966;48.064;-0.792;2023-07-13T01:30:00;24.90;46.60
50955;DHT22;36966;48.064;-0.792;2023-07-13T01:32:23;24.90;46.50
50955;DHT22;36966;48.064;-0.792;2023-07-13T01:34:44;24.90;46.60
50955;DHT22;36966;48.064;-0.792;2023-07-13T01:37:04;24.90;46.50
50955;DHT22;36966;48.064;-0.792;2023-07-13T01:39:23;24.90;46.60
50955;DHT22;36966;48.064;-0.792;2023-07-13T01:41:43;24.90;46.60
50955;DHT22;36966;48.064;-0.792;2023-07-13T01:44:02;24.90;46.60
50955;DHT22;36966;48.064;-0.792;2023-07-13T01:46:21;24.90;46.60
50955;DHT22;36966;48.064;-0.792;2023-07-13T01:48:41;24.90;46.60
50955;DHT22;36966;48.064;-0.792;2023-07-13T01:51:00;24.90;46.60
50955;DHT22;36966;48.064;-0.792;2023-07-13T01:53:20;24.80;46.60
50955;DHT22;36966;48.064;-0.792;2023-07-13T01:55:39;24.80;46.60
50955;DHT22;36966;48.064;-0.792;2023-07-13T01:57:58;24.80;46.60
50955;DHT22;36966;48.064;-0.792;2023-07-13T02:00:17;24.80;46.70
50955;DHT22;36966;48.064;-0.792;2023-07-13T02:02:37;24.80;46.70
50955;DHT22;36966;48.064;-0.792;2023-07-13T02:04:56;24.70;46.70
50955;DHT22;36966;48.064;-0.792;2023-07-13T02:07:15;24.80;46.70
50955;DHT22;36966;48.064;-0.792;2023-07-13T02:09:35;24.80;46.70
50955;DHT22;36966;48.064;-0.792;2023-07-13T02:11:54;24.80;46.60
50955;DHT22;36966;48.064;-0.792;2023-07-13T02:14:13;24.80;46.70
50955;DHT22;36966;48.064;-0.792;2023-07-13T02:16:34;24.70;46.70
50955;DHT22;36966;48.064;-0.792;2023-07-13T02:18:53;24.80;46.80
50955;DHT22;36966;48.064;-0.792;2023-07-13T02:21:12;24.70;46.80
50955;DHT22;36966;48.064;-0.792;2023-07-13T02:23:31;24.70;46.80
50955;DHT22;36966;48.064;-0.792;2023-07-13T02:25:57;24.70;46.80
50955;DHT22;36966;48.064;-0.792;2023-07-13T02:28:17;24.70;46.80
50955;DHT22;36966;48.064;-0.792;2023-07-13T02:30:36;24.70;46.80
50955;DHT22;36966;48.064;-0.792;2023-07-13T02:32:58;24.70;46.80
50955;DHT22;36966;48.064;-0.792;2023-07-13T02:35:18;24.70;46.90
50955;DHT22;36966;48.064;-0.792;2023-07-13T02:37:37;24.70;46.80
50955;DHT22;36966;48.064;-0.792;2023-07-13T02:39:57;24.70;46.90
50955;DHT22;36966;48.064;-0.792;2023-07-13T02:42:16;24.70;46.90
50955;DHT22;36966;48.064;-0.792;2023-07-13T02:44:35;24.70;46.80
50955;DHT22;36966;48.064;-0.792;2023-07-13T02:46:55;24.70;46.80
50955;DHT22;36966;48.064;-0.792;2023-07-13T02:49:14;24.70;46.90
50955;DHT22;36966;48.064;-0.792;2023-07-13T02:51:33;24.70;46.90
50955;DHT22;36966;48.064;-0.792;2023-07-13T02:53:53;24.70;46.90
50955;DHT22;36966;48.064;-0.792;2023-07-13T02:56:12;24.70;46.90
50955;DHT22;36966;48.064;-0.792;2023-07-13T02:58:31;24.70;47.00
50955;DHT22;36966;48.064;-0.792;2023-07-13T03:00:51;24.70;46.90
50955;DHT22;36966;48.064;-0.792;2023-07-13T03:03:10;24.70;46.90
50955;DHT22;36966;48.064;-0.792;2023-07-13T03:05:30;24.70;46.90
50955;DHT22;36966;48.064;-0.792;2023-07-13T03:07:49;24.70;46.90
50955;DHT22;36966;48.064;-0.792;2023-07-13T03:10:08;24.70;47.00
50955;DHT22;36966;48.064;-0.792;2023-07-13T03:12:28;24.70;47.00
50955;DHT22;36966;48.064;-0.792;2023-07-13T03:14:47;24.60;47.00
50955;DHT22;36966;48.064;-0.792;2023-07-13T03:17:06;24.60;47.00
50955;DHT22;36966;48.064;-0.792;2023-07-13T03:19:25;24.70;46.90
50955;DHT22;36966;48.064;-0.792;2023-07-13T03:21:44;24.60;47.00
50955;DHT22;36966;48.064;-0.792;2023-07-13T03:24:04;24.70;47.00
50955;DHT22;36966;48.064;-0.792;2023-07-13T03:26:24;24.60;47.00
50955;DHT22;36966;48.064;-0.792;2023-07-13T03:28:43;24.60;47.00
50955;DHT22;36966;48.064;-0.792;2023-07-13T03:31:03;24.60;47.00
50955;DHT22;36966;48.064;-0.792;2023-07-13T03:33:23;24.60;47.00
50955;DHT22;36966;48.064;-0.792;2023-07-13T03:35:42;24.60;47.10
50955;DHT22;36966;48.064;-0.792;2023-07-13T03:38:02;24.60;47.00
50955;DHT22;36966;48.064;-0.792;2023-07-13T03:40:21;24.60;47.00
50955;DHT22;36966;48.064;-0.792;2023-07-13T03:42:40;24.60;47.00
50955;DHT22;36966;48.064;-0.792;2023-07-13T03:45:00;24.60;47.00
50955;DHT22;36966;48.064;-0.792;2023-07-13T03:47:19;24.60;47.10
50955;DHT22;36966;48.064;-0.792;2023-07-13T03:49:38;24.50;47.00
50955;DHT22;36966;48.064;-0.792;2023-07-13T03:51:58;24.60;47.00
50955;DHT22;36966;48.064;-0.792;2023-07-13T03:54:17;24.60;47.10
50955;DHT22;36966;48.064;-0.792;2023-07-13T03:56:36;24.60;47.10
50955;DHT22;36966;48.064;-0.792;2023-07-13T03:58:56;24.60;47.10
50955;DHT22;36966;48.064;-0.792;2023-07-13T04:01:16;24.50;47.00
50955;DHT22;36966;48.064;-0.792;2023-07-13T04:03:36;24.50;47.10
50955;DHT22;36966;48.064;-0.792;2023-07-13T04:05:55;24.50;47.10
50955;DHT22;36966;48.064;-0.792;2023-07-13T04:08:18;24.50;47.10
50955;DHT22;36966;48.064;-0.792;2023-07-13T04:10:37;24.50;47.10
50955;DHT22;36966;48.064;-0.792;2023-07-13T04:12:58;24.50;47.20
50955;DHT22;36966;48.064;-0.792;2023-07-13T04:15:17;24.50;47.10
50955;DHT22;36966;48.064;-0.792;2023-07-13T04:17:37;24.50;47.10
50955;DHT22;36966;48.064;-0.792;2023-07-13T04:19:56;24.50;47.10
50955;DHT22;36966;48.064;-0.792;2023-07-13T04:24:57;24.50;47.20
50955;DHT22;36966;48.064;-0.792;2023-07-13T04:27:16;24.50;47.20
50955;DHT22;36966;48.064;-0.792;2023-07-13T04:29:35;24.50;47.20
50955;DHT22;36966;48.064;-0.792;2023-07-13T04:31:55;24.50;47.20
50955;DHT22;36966;48.064;-0.792;2023-07-13T04:34:14;24.50;47.20
50955;DHT22;36966;48.064;-0.792;2023-07-13T04:36:36;24.50;47.20
50955;DHT22;36966;48.064;-0.792;2023-07-13T04:38:59;24.50;47.20
50955;DHT22;36966;48.064;-0.792;2023-07-13T04:41:18;24.50;47.30
50955;DHT22;36966;48.064;-0.792;2023-07-13T04:43:37;24.50;47.30
50955;DHT22;36966;48.064;-0.792;2023-07-13T04:45:57;24.50;47.30
50955;DHT22;36966;48.064;-0.792;2023-07-13T04:48:17;24.50;47.20
50955;DHT22;36966;48.064;-0.792;2023-07-13T04:50:36;24.40;47.30
50955;DHT22;36966;48.064;-0.792;2023-07-13T04:52:56;24.50;47.30
50955;DHT22;36966;48.064;-0.792;2023-07-13T04:55:15;24.40;47.30
50955;DHT22;36966;48.064;-0.792;2023-07-13T04:57:34;24.40;47.30
50955;DHT22;36966;48.064;-0.792;2023-07-13T04:59:54;24.40;47.30
50955;DHT22;36966;48.064;-0.792;2023-07-13T05:02:13;24.40;47.30
50955;DHT22;36966;48.064;-0.792;2023-07-13T05:04:32;24.40;47.20
50955;DHT22;36966;48.064;-0.792;2023-07-13T05:06:51;24.40;47.40
50955;DHT22;36966;48.064;-0.792;2023-07-13T05:09:11;24.40;47.40
50955;DHT22;36966;48.064;-0.792;2023-07-13T05:11:31;24.40;47.30
50955;DHT22;36966;48.064;-0.792;2023-07-13T05:13:51;24.40;47.40
50955;DHT22;36966;48.064;-0.792;2023-07-13T05:16:10;24.40;47.40
50955;DHT22;36966;48.064;-0.792;2023-07-13T05:18:29;24.40;47.40
50955;DHT22;36966;48.064;-0.792;2023-07-13T05:20:56;24.40;47.50
50955;DHT22;36966;48.064;-0.792;2023-07-13T05:23:15;24.40;47.60
50955;DHT22;36966;48.064;-0.792;2023-07-13T05:25:35;24.50;47.60
50955;DHT22;36966;48.064;-0.792;2023-07-13T05:27:54;24.50;47.50
50955;DHT22;36966;48.064;-0.792;2023-07-13T05:30:13;24.50;47.40
50955;DHT22;36966;48.064;-0.792;2023-07-13T05:32:32;24.60;47.40
50955;DHT22;36966;48.064;-0.792;2023-07-13T05:34:52;24.50;47.40
50955;DHT22;36966;48.064;-0.792;2023-07-13T05:37:11;24.50;47.40
50955;DHT22;36966;48.064;-0.792;2023-07-13T05:39:30;24.50;47.40
50955;DHT22;36966;48.064;-0.792;2023-07-13T05:41:49;24.50;47.40
50955;DHT22;36966;48.064;-0.792;2023-07-13T05:44:09;24.50;47.40
50955;DHT22;36966;48.064;-0.792;2023-07-13T05:46:28;24.50;47.40
50955;DHT22;36966;48.064;-0.792;2023-07-13T05:48:48;24.50;47.50
50955;DHT22;36966;48.064;-0.792;2023-07-13T05:51:07;24.50;47.50
50955;DHT22;36966;48.064;-0.792;2023-07-13T05:53:27;24.50;47.50
50955;DHT22;36966;48.064;-0.792;2023-07-13T05:55:47;24.50;47.50
50955;DHT22;36966;48.064;-0.792;2023-07-13T05:58:10;24.50;47.50
50955;DHT22;36966;48.064;-0.792;2023-07-13T06:00:30;24.50;47.50
50955;DHT22;36966;48.064;-0.792;2023-07-13T06:02:49;24.50;47.50
50955;DHT22;36966;48.064;-0.792;2023-07-13T06:05:09;24.50;47.60
50955;DHT22;36966;48.064;-0.792;2023-07-13T06:07:28;24.50;47.60
50955;DHT22;36966;48.064;-0.792;2023-07-13T06:09:47;24.50;47.60
50955;DHT22;36966;48.064;-0.792;2023-07-13T06:12:07;24.50;47.60
50955;DHT22;36966;48.064;-0.792;2023-07-13T06:14:26;24.50;47.70
50955;DHT22;36966;48.064;-0.792;2023-07-13T06:16:46;24.50;47.70
50955;DHT22;36966;48.064;-0.792;2023-07-13T06:19:05;24.50;47.70
50955;DHT22;36966;48.064;-0.792;2023-07-13T06:21:25;24.50;47.70
50955;DHT22;36966;48.064;-0.792;2023-07-13T06:23:44;24.50;47.80
50955;DHT22;36966;48.064;-0.792;2023-07-13T06:26:04;24.50;47.80
50955;DHT22;36966;48.064;-0.792;2023-07-13T06:28:24;24.50;47.70
50955;DHT22;36966;48.064;-0.792;2023-07-13T06:30:43;24.50;47.80
50955;DHT22;36966;48.064;-0.792;2023-07-13T06:33:02;24.50;47.80
50955;DHT22;36966;48.064;-0.792;2023-07-13T06:35:22;24.50;47.80
50955;DHT22;36966;48.064;-0.792;2023-07-13T06:37:41;24.50;47.90
50955;DHT22;36966;48.064;-0.792;2023-07-13T06:40:01;24.50;47.90
50955;DHT22;36966;48.064;-0.792;2023-07-13T06:42:20;24.50;47.90
50955;DHT22;36966;48.064;-0.792;2023-07-13T06:44:39;24.50;48.00
50955;DHT22;36966;48.064;-0.792;2023-07-13T06:46:58;24.50;48.00
50955;DHT22;36966;48.064;-0.792;2023-07-13T06:49:18;24.50;48.00
50955;DHT22;36966;48.064;-0.792;2023-07-13T06:51:37;24.50;48.00
50955;DHT22;36966;48.064;-0.792;2023-07-13T06:53:56;24.50;48.10
50955;DHT22;36966;48.064;-0.792;2023-07-13T06:56:16;24.50;48.10
50955;DHT22;36966;48.064;-0.792;2023-07-13T06:58:35;24.50;48.10
50955;DHT22;36966;48.064;-0.792;2023-07-13T07:00:55;24.40;48.10
50955;DHT22;36966;48.064;-0.792;2023-07-13T07:03:14;24.50;48.20
50955;DHT22;36966;48.064;-0.792;2023-07-13T07:05:36;24.50;48.20
50955;DHT22;36966;48.064;-0.792;2023-07-13T07:07:55;24.50;48.30
50955;DHT22;36966;48.064;-0.792;2023-07-13T07:10:14;24.50;48.30
50955;DHT22;36966;48.064;-0.792;2023-07-13T07:12:33;24.50;48.30
50955;DHT22;36966;48.064;-0.792;2023-07-13T07:14:53;24.50;48.30
50955;DHT22;36966;48.064;-0.792;2023-07-13T07:17:12;24.50;48.30
50955;DHT22;36966;48.064;-0.792;2023-07-13T07:19:31;24.40;48.30
50955;DHT22;36966;48.064;-0.792;2023-07-13T07:21:50;24.50;48.40
50955;DHT22;36966;48.064;-0.792;2023-07-13T07:24:10;24.50;48.40
50955;DHT22;36966;48.064;-0.792;2023-07-13T07:26:29;24.40;48.40
50955;DHT22;36966;48.064;-0.792;2023-07-13T07:28:48;24.50;48.40
50955;DHT22;36966;48.064;-0.792;2023-07-13T07:31:08;24.40;48.40
50955;DHT22;36966;48.064;-0.792;2023-07-13T07:33:27;24.50;48.40
50955;DHT22;36966;48.064;-0.792;2023-07-13T07:35:47;24.50;48.50
50955;DHT22;36966;48.064;-0.792;2023-07-13T07:38:08;24.50;48.50
50955;DHT22;36966;48.064;-0.792;2023-07-13T07:40:28;24.50;48.50
50955;DHT22;36966;48.064;-0.792;2023-07-13T07:42:47;24.40;48.50
50955;DHT22;36966;48.064;-0.792;2023-07-13T07:45:07;24.50;48.60
50955;DHT22;36966;48.064;-0.792;2023-07-13T07:47:26;24.50;48.60
50955;DHT22;36966;48.064;-0.792;2023-07-13T07:49:46;24.50;48.60
50955;DHT22;36966;48.064;-0.792;2023-07-13T07:52:05;24.50;48.60
50955;DHT22;36966;48.064;-0.792;2023-07-13T07:54:25;24.40;48.70
50955;DHT22;36966;48.064;-0.792;2023-07-13T07:56:44;24.50;48.70
50955;DHT22;36966;48.064;-0.792;2023-07-13T07:59:03;24.40;48.70
50955;DHT22;36966;48.064;-0.792;2023-07-13T08:01:22;24.40;48.70
50955;DHT22;36966;48.064;-0.792;2023-07-13T08:03:42;24.50;48.80
50955;DHT22;36966;48.064;-0.792;2023-07-13T08:06:01;24.40;48.70
50955;DHT22;36966;48.064;-0.792;2023-07-13T08:08:21;24.50;48.70
50955;DHT22;36966;48.064;-0.792;2023-07-13T08:10:40;24.40;48.80
50955;DHT22;36966;48.064;-0.792;2023-07-13T08:13:00;24.50;48.80
50955;DHT22;36966;48.064;-0.792;2023-07-13T08:15:19;24.50;48.80
50955;DHT22;36966;48.064;-0.792;2023-07-13T08:17:39;24.50;48.90
50955;DHT22;36966;48.064;-0.792;2023-07-13T08:19:58;24.50;48.80
50955;DHT22;36966;48.064;-0.792;2023-07-13T08:22:17;24.50;48.90
50955;DHT22;36966;48.064;-0.792;2023-07-13T08:24:37;24.50;48.90
50955;DHT22;36966;48.064;-0.792;2023-07-13T08:26:56;24.50;48.90
50955;DHT22;36966;48.064;-0.792;2023-07-13T08:29:15;24.50;48.90
50955;DHT22;36966;48.064;-0.792;2023-07-13T08:31:34;24.50;48.90
50955;DHT22;36966;48.064;-0.792;2023-07-13T08:33:54;24.50;48.90
50955;DHT22;36966;48.064;-0.792;2023-07-13T08:36:13;24.50;49.00
50955;DHT22;36966;48.064;-0.792;2023-07-13T08:38:32;24.50;48.90
50955;DHT22;36966;48.064;-0.792;2023-07-13T08:40:52;24.50;48.90
50955;DHT22;36966;48.064;-0.792;2023-07-13T08:43:16;24.50;49.00
50955;DHT22;36966;48.064;-0.792;2023-07-13T08:48:01;24.50;49.00
50955;DHT22;36966;48.064;-0.792;2023-07-13T08:50:23;24.50;49.00
50955;DHT22;36966;48.064;-0.792;2023-07-13T08:52:44;24.50;49.10
50955;DHT22;36966;48.064;-0.792;2023-07-13T08:55:05;24.50;49.10
50955;DHT22;36966;48.064;-0.792;2023-07-13T08:57:31;24.50;49.10
50955;DHT22;36966;48.064;-0.792;2023-07-13T08:59:52;24.50;49.10
50955;DHT22;36966;48.064;-0.792;2023-07-13T09:04:50;24.50;49.10
50955;DHT22;36966;48.064;-0.792;2023-07-13T09:14:50;24.50;49.10
50955;DHT22;36966;48.064;-0.792;2023-07-13T09:17:21;24.50;49.10
50955;DHT22;36966;48.064;-0.792;2023-07-13T09:19:42;24.50;49.10
50955;DHT22;36966;48.064;-0.792;2023-07-13T09:22:03;24.50;49.10
50955;DHT22;36966;48.064;-0.792;2023-07-13T09:24:37;24.50;49.10
50955;DHT22;36966;48.064;-0.792;2023-07-13T09:26:57;24.50;49.10
50955;DHT22;36966;48.064;-0.792;2023-07-13T09:29:23;24.60;49.10
50955;DHT22;36966;48.064;-0.792;2023-07-13T09:31:47;24.50;49.20
50955;DHT22;36966;48.064;-0.792;2023-07-13T09:34:11;24.60;49.10
50955;DHT22;36966;48.064;-0.792;2023-07-13T09:36:31;24.60;49.20
50955;DHT22;36966;48.064;-0.792;2023-07-13T09:38:59;24.60;49.20
50955;DHT22;36966;48.064;-0.792;2023-07-13T09:44:00;24.70;49.30
50955;DHT22;36966;48.064;-0.792;2023-07-13T09:46:20;24.70;49.20
50955;DHT22;36966;48.064;-0.792;2023-07-13T09:48:41;24.70;49.20
50955;DHT22;36966;48.064;-0.792;2023-07-13T09:51:14;24.70;49.10
50955;DHT22;36966;48.064;-0.792;2023-07-13T09:53:36;24.70;49.10
50955;DHT22;36966;48.064;-0.792;2023-07-13T09:55:55;24.70;49.10
50955;DHT22;36966;48.064;-0.792;2023-07-13T09:58:16;24.70;49.10
50955;DHT22;36966;48.064;-0.792;2023-07-13T10:00:37;24.70;49.10
50955;DHT22;36966;48.064;-0.792;2023-07-13T10:03:16;24.80;49.00
50955;DHT22;36966;48.064;-0.792;2023-07-13T10:05:44;24.80;49.10
50955;DHT22;36966;48.064;-0.792;2023-07-13T10:08:03;24.80;49.00
50955;DHT22;36966;48.064;-0.792;2023-07-13T10:10:26;24.80;49.00
50955;DHT22;36966;48.064;-0.792;2023-07-13T10:12:46;24.90;48.90
50955;DHT22;36966;48.064;-0.792;2023-07-13T10:15:07;24.90;48.90
50955;DHT22;36966;48.064;-0.792;2023-07-13T10:17:32;24.90;49.00
50955;DHT22;36966;48.064;-0.792;2023-07-13T10:19:52;24.90;49.00
50955;DHT22;36966;48.064;-0.792;2023-07-13T10:22:24;25.00;49.00
50955;DHT22;36966;48.064;-0.792;2023-07-13T10:24:44;25.00;48.90
50955;DHT22;36966;48.064;-0.792;2023-07-13T10:27:12;25.00;48.70
50955;DHT22;36966;48.064;-0.792;2023-07-13T10:29:36;25.10;48.50
50955;DHT22;36966;48.064;-0.792;2023-07-13T10:31:56;25.10;48.50
50955;DHT22;36966;48.064;-0.792;2023-07-13T10:34:16;25.10;48.40
50955;DHT22;36966;48.064;-0.792;2023-07-13T10:36:43;25.20;48.50
50955;DHT22;36966;48.064;-0.792;2023-07-13T10:39:04;25.10;48.50
50955;DHT22;36966;48.064;-0.792;2023-07-13T10:41:24;25.20;48.60
50955;DHT22;36966;48.064;-0.792;2023-07-13T10:43:44;25.20;48.40
50955;DHT22;36966;48.064;-0.792;2023-07-13T10:46:05;25.20;48.40
50955;DHT22;36966;48.064;-0.792;2023-07-13T10:48:25;25.20;48.30
50955;DHT22;36966;48.064;-0.792;2023-07-13T10:50:45;25.20;48.30
50955;DHT22;36966;48.064;-0.792;2023-07-13T10:58:20;25.20;48.30
50955;DHT22;36966;48.064;-0.792;2023-07-13T11:00:44;25.20;48.30
50955;DHT22;36966;48.064;-0.792;2023-07-13T11:03:10;25.20;48.30
50955;DHT22;36966;48.064;-0.792;2023-07-13T11:05:32;25.10;48.30
50955;DHT22;36966;48.064;-0.792;2023-07-13T11:07:54;25.10;48.20
50955;DHT22;36966;48.064;-0.792;2023-07-13T11:10:45;25.20;48.20
50955;DHT22;36966;48.064;-0.792;2023-07-13T11:12:54;25.10;48.20
50955;DHT22;36966;48.064;-0.792;2023-07-13T11:15:13;25.20;48.30
50955;DHT22;36966;48.064;-0.792;2023-07-13T11:17:34;25.20;48.30
50955;DHT22;36966;48.064;-0.792;2023-07-13T11:19:54;25.20;48.20
50955;DHT22;36966;48.064;-0.792;2023-07-13T11:22:40;25.20;48.30
50955;DHT22;36966;48.064;-0.792;2023-07-13T11:25:06;25.20;48.30
50955;DHT22;36966;48.064;-0.792;2023-07-13T11:27:43;25.20;48.30
50955;DHT22;36966;48.064;-0.792;2023-07-13T11:30:13;25.10;48.30
50955;DHT22;36966;48.064;-0.792;2023-07-13T11:32:37;25.20;48.30
50955;DHT22;36966;48.064;-0.792;2023-07-13T11:34:56;25.10;48.30
50955;DHT22;36966;48.064;-0.792;2023-07-13T11:37:16;25.10;48.30
50955;DHT22;36966;48.064;-0.792;2023-07-13T11:39:38;25.10;48.40
50955;DHT22;36966;48.064;-0.792;2023-07-13T11:42:01;25.20;48.50
50955;DHT22;36966;48.064;-0.792;2023-07-13T11:44:21;25.20;48.40
50955;DHT22;36966;48.064;-0.792;2023-07-13T11:46:48;25.20;48.50
50955;DHT22;36966;48.064;-0.792;2023-07-13T11:49:11;25.20;48.40
50955;DHT22;36966;48.064;-0.792;2023-07-13T11:51:35;25.20;48.30
50955;DHT22;36966;48.064;-0.792;2023-07-13T11:53:55;25.20;48.30
50955;DHT22;36966;48.064;-0.792;2023-07-13T11:56:16;25.20;48.30
50955;DHT22;36966;48.064;-0.792;2023-07-13T11:58:35;25.20;48.10
50955;DHT22;36966;48.064;-0.792;2023-07-13T12:00:55;25.20;47.70
50955;DHT22;36966;48.064;-0.792;2023-07-13T12:03:17;25.20;47.60
50955;DHT22;36966;48.064;-0.792;2023-07-13T12:05:38;25.10;47.40
50955;DHT22;36966;48.064;-0.792;2023-07-13T12:08:16;25.10;47.40
50955;DHT22;36966;48.064;-0.792;2023-07-13T12:10:36;25.20;47.40
50955;DHT22;36966;48.064;-0.792;2023-07-13T12:12:56;25.20;47.60
50955;DHT22;36966;48.064;-0.792;2023-07-13T12:15:16;25.20;47.80
50955;DHT22;36966;48.064;-0.792;2023-07-13T12:17:35;25.20;47.80
50955;DHT22;36966;48.064;-0.792;2023-07-13T12:19:54;25.10;47.90
50955;DHT22;36966;48.064;-0.792;2023-07-13T12:22:14;25.20;47.90
50955;DHT22;36966;48.064;-0.792;2023-07-13T12:24:33;25.20;47.90
50955;DHT22;36966;48.064;-0.792;2023-07-13T12:26:55;25.20;47.90
50955;DHT22;36966;48.064;-0.792;2023-07-13T12:29:17;25.20;48.00
50955;DHT22;36966;48.064;-0.792;2023-07-13T12:31:39;25.20;48.00
50955;DHT22;36966;48.064;-0.792;2023-07-13T12:34:06;25.20;48.00
50955;DHT22;36966;48.064;-0.792;2023-07-13T12:36:25;25.20;48.10
50955;DHT22;36966;48.064;-0.792;2023-07-13T12:38:45;25.20;48.10
50955;DHT22;36966;48.064;-0.792;2023-07-13T12:41:05;25.20;48.00
50955;DHT22;36966;48.064;-0.792;2023-07-13T12:43:28;25.20;48.00
50955;DHT22;36966;48.064;-0.792;2023-07-13T12:48:16;25.30;48.00
50955;DHT22;36966;48.064;-0.792;2023-07-13T12:50:39;25.20;48.00
50955;DHT22;36966;48.064;-0.792;2023-07-13T12:53:03;25.30;47.90
50955;DHT22;36966;48.064;-0.792;2023-07-13T12:55:23;25.30;48.00
50955;DHT22;36966;48.064;-0.792;2023-07-13T12:57:44;25.20;48.00
50955;DHT22;36966;48.064;-0.792;2023-07-13T13:00:11;25.20;47.90
50955;DHT22;36966;48.064;-0.792;2023-07-13T13:02:38;25.20;48.00
50955;DHT22;36966;48.064;-0.792;2023-07-13T13:04:57;25.20;48.00
50955;DHT22;36966;48.064;-0.792;2023-07-13T13:07:17;25.20;47.90
50955;DHT22;36966;48.064;-0.792;2023-07-13T13:09:38;25.20;47.90
50955;DHT22;36966;48.064;-0.792;2023-07-13T13:11:58;25.20;47.80
50955;DHT22;36966;48.064;-0.792;2023-07-13T13:14:17;25.20;47.50
50955;DHT22;36966;48.064;-0.792;2023-07-13T13:16:45;25.20;47.20
50955;DHT22;36966;48.064;-0.792;2023-07-13T13:19:12;25.30;47.30
50955;DHT22;36966;48.064;-0.792;2023-07-13T13:21:31;25.20;47.40
50955;DHT22;36966;48.064;-0.792;2023-07-13T13:23:51;25.20;47.40
50955;DHT22;36966;48.064;-0.792;2023-07-13T13:26:15;25.20;47.40
50955;DHT22;36966;48.064;-0.792;2023-07-13T13:28:37;25.20;47.40
50955;DHT22;36966;48.064;-0.792;2023-07-13T13:30:56;25.20;47.40
50955;DHT22;36966;48.064;-0.792;2023-07-13T13:33:17;25.20;47.50
50955;DHT22;36966;48.064;-0.792;2023-07-13T13:35:36;25.20;47.50
50955;DHT22;36966;48.064;-0.792;2023-07-13T13:37:56;25.20;47.60
50955;DHT22;36966;48.064;-0.792;2023-07-13T13:40:15;25.30;47.70
50955;DHT22;36966;48.064;-0.792;2023-07-13T13:42:35;25.20;47.60
50955;DHT22;36966;48.064;-0.792;2023-07-13T13:44:54;25.20;47.60
50955;DHT22;36966;48.064;-0.792;2023-07-13T13:47:29;25.30;47.20
50955;DHT22;36966;48.064;-0.792;2023-07-13T13:49:49;25.20;47.00
50955;DHT22;36966;48.064;-0.792;2023-07-13T13:52:09;25.20;47.00
50955;DHT22;36966;48.064;-0.792;2023-07-13T13:54:29;25.20;46.90
50955;DHT22;36966;48.064;-0.792;2023-07-13T13:56:49;25.20;47.10
50955;DHT22;36966;48.064;-0.792;2023-07-13T13:59:08;25.20;47.20
50955;DHT22;36966;48.064;-0.792;2023-07-13T14:01:28;25.20;47.20
50955;DHT22;36966;48.064;-0.792;2023-07-13T14:03:48;25.20;47.10
50955;DHT22;36966;48.064;-0.792;2023-07-13T14:06:08;25.20;47.10
50955;DHT22;36966;48.064;-0.792;2023-07-13T14:08:27;25.20;47.20
50955;DHT22;36966;48.064;-0.792;2023-07-13T14:10:51;25.20;47.10
50955;DHT22;36966;48.064;-0.792;2023-07-13T14:13:47;25.20;47.30
50955;DHT22;36966;48.064;-0.792;2023-07-13T14:15:58;25.30;47.20
50955;DHT22;36966;48.064;-0.792;2023-07-13T14:18:18;25.20;47.20
50955;DHT22;36966;48.064;-0.792;2023-07-13T14:20:37;25.20;47.20
50955;DHT22;36966;48.064;-0.792;2023-07-13T14:22:56;25.20;47.30
50955;DHT22;36966;48.064;-0.792;2023-07-13T14:25:16;25.20;47.30
50955;DHT22;36966;48.064;-0.792;2023-07-13T14:27:35;25.20;47.20
50955;DHT22;36966;48.064;-0.792;2023-07-13T14:29:55;25.30;47.00
50955;DHT22;36966;48.064;-0.792;2023-07-13T14:32:14;25.20;47.10
50955;DHT22;36966;48.064;-0.792;2023-07-13T14:34:33;25.20;47.20
50955;DHT22;36966;48.064;-0.792;2023-07-13T14:36:53;25.30;47.00
50955;DHT22;36966;48.064;-0.792;2023-07-13T14:39:13;25.20;46.80
50955;DHT22;36966;48.064;-0.792;2023-07-13T14:41:33;25.20;47.00
50955;DHT22;36966;48.064;-0.792;2023-07-13T14:43:52;25.20;47.10
50955;DHT22;36966;48.064;-0.792;2023-07-13T14:46:30;25.20;47.10
50955;DHT22;36966;48.064;-0.792;2023-07-13T14:48:49;25.30;47.00
50955;DHT22;36966;48.064;-0.792;2023-07-13T14:51:09;25.30;46.40
50955;DHT22;36966;48.064;-0.792;2023-07-13T14:53:29;25.30;46.40
50955;DHT22;36966;48.064;-0.792;2023-07-13T14:55:48;25.30;46.60
50955;DHT22;36966;48.064;-0.792;2023-07-13T14:58:07;25.30;46.60
50955;DHT22;36966;48.064;-0.792;2023-07-13T15:00:27;25.30;46.60
50955;DHT22;36966;48.064;-0.792;2023-07-13T15:02:47;25.30;46.40
50955;DHT22;36966;48.064;-0.792;2023-07-13T15:05:17;25.30;46.50